createdAt,value
2018-09-29T00:01:08.940Z,2.70
2018-09-29T00:03:37.398Z,2.60
2018-09-29T00:06:05.900Z,2.97
2018-09-29T00:08:34.352Z,3.53
2018-09-29T00:11:02.857Z,3.30
2018-09-29T00:13:31.308Z,3.00
2018-09-29T00:15:59.795Z,2.73
2018-09-29T00:18:28.261Z,2.70
2018-09-29T00:20:56.769Z,2.77
2018-09-29T00:23:25.286Z,3.10
2018-09-29T00:25:53.795Z,3.27
2018-09-29T00:28:22.284Z,2.60
2018-09-29T00:30:50.935Z,3.53
2018-09-29T00:33:19.382Z,3.20
2018-09-29T00:35:47.868Z,2.60
2018-09-29T00:38:16.385Z,2.50
2018-09-29T00:40:44.891Z,2.90
2018-09-29T00:43:14.285Z,2.97
2018-09-29T00:45:42.792Z,2.70
2018-09-29T00:48:11.268Z,2.63
2018-09-29T00:50:39.740Z,3.23
2018-09-29T00:53:08.258Z,2.47
2018-09-29T00:55:36.748Z,2.63
2018-09-29T00:58:05.201Z,2.97
2018-09-29T01:00:33.727Z,2.87
2018-09-29T01:03:02.168Z,2.90
2018-09-29T01:05:30.630Z,3.00
2018-09-29T01:07:59.077Z,2.73
2018-09-29T01:10:27.544Z,2.60
2018-09-29T01:12:55.984Z,2.77
2018-09-29T01:15:24.464Z,2.70
2018-09-29T01:17:52.900Z,2.57
2018-09-29T01:20:21.388Z,2.57
2018-09-29T01:22:49.845Z,3.50
2018-09-29T01:25:18.347Z,3.13
2018-09-29T01:27:46.838Z,2.93
2018-09-29T01:30:15.309Z,2.70
2018-09-29T01:32:43.802Z,3.23
2018-09-29T01:35:12.218Z,3.17
2018-09-29T01:37:40.679Z,3.10
2018-09-29T01:40:09.153Z,2.70
2018-09-29T01:42:37.655Z,3.20
2018-09-29T01:45:06.293Z,3.10
2018-09-29T01:47:34.796Z,2.40
2018-09-29T01:50:03.305Z,3.73
2018-09-29T01:52:31.728Z,3.13
2018-09-29T01:55:00.556Z,3.20
2018-09-29T01:57:29.231Z,3.40
2018-09-29T01:59:57.963Z,3.50
2018-09-29T02:02:26.410Z,3.10
2018-09-29T02:04:55.286Z,3.37
2018-09-29T02:07:24.404Z,3.13
2018-09-29T02:09:52.852Z,3.80
2018-09-29T02:12:21.314Z,4.00
2018-09-29T02:14:49.743Z,3.47
2018-09-29T02:17:18.230Z,3.83
2018-09-29T02:19:46.715Z,4.23
2018-09-29T02:22:15.121Z,3.50
2018-09-29T02:24:43.549Z,4.20
2018-09-29T02:27:12.061Z,3.80
2018-09-29T02:29:40.584Z,3.40
2018-09-29T02:32:09.044Z,4.23
2018-09-29T02:34:37.642Z,4.10
2018-09-29T02:37:06.550Z,3.73
2018-09-29T02:39:35.462Z,4.10
2018-09-29T02:42:04.147Z,3.93
2018-09-29T02:44:32.892Z,4.70
2018-09-29T02:47:02.501Z,4.53
2018-09-29T02:49:31.517Z,3.93
2018-09-29T02:52:00.056Z,4.27
2018-09-29T02:54:28.859Z,3.87
2018-09-29T02:56:57.652Z,4.27
2018-09-29T02:59:26.365Z,3.93
2018-09-29T03:01:55.072Z,3.90
2018-09-29T03:04:23.890Z,3.03
2018-09-29T03:06:52.750Z,2.23
2018-09-29T03:09:21.624Z,3.10
2018-09-29T03:11:50.458Z,3.70
2018-09-29T03:14:19.175Z,3.23
2018-09-29T03:16:48.120Z,3.40
2018-09-29T03:19:16.957Z,2.77
2018-09-29T03:21:45.743Z,3.07
2018-09-29T03:24:14.698Z,3.00
2018-09-29T03:26:43.447Z,3.53
2018-09-29T03:29:11.917Z,4.03
2018-09-29T03:31:40.416Z,4.17
2018-09-29T03:34:08.963Z,4.20
2018-09-29T03:36:37.443Z,4.20
2018-09-29T03:39:08.226Z,4.83
2018-09-29T03:41:36.989Z,4.30
2018-09-29T03:44:05.505Z,4.33
2018-09-29T03:46:33.970Z,4.63
2018-09-29T03:49:02.368Z,4.97
2018-09-29T03:51:30.784Z,5.10
2018-09-29T03:53:59.361Z,4.77
2018-09-29T03:56:27.823Z,5.30
2018-09-29T03:58:56.323Z,4.83
2018-09-29T04:01:24.827Z,5.03
2018-09-29T04:03:53.400Z,4.80
2018-09-29T04:06:22.389Z,5.00
2018-09-29T04:08:50.880Z,4.63
2018-09-29T04:11:19.327Z,5.00
2018-09-29T04:13:47.832Z,4.87
2018-09-29T04:16:16.273Z,4.80
2018-09-29T04:18:44.707Z,5.23
2018-09-29T04:21:13.178Z,4.57
2018-09-29T04:23:41.626Z,4.40
2018-09-29T04:26:10.169Z,2.90
2018-09-29T04:28:38.659Z,2.90
2018-09-29T04:31:07.154Z,3.30
2018-09-29T04:33:35.655Z,3.37
2018-09-29T04:36:04.175Z,4.00
2018-09-29T04:38:32.625Z,3.97
2018-09-29T04:41:01.077Z,3.27
2018-09-29T04:43:29.720Z,3.23
2018-09-29T04:45:58.184Z,3.30
2018-09-29T04:48:26.614Z,3.47
2018-09-29T04:50:55.053Z,3.87
2018-09-29T04:53:23.478Z,4.10
2018-09-29T04:55:51.941Z,3.67
2018-09-29T04:58:20.417Z,4.43
2018-09-29T05:00:49.006Z,4.53
2018-09-29T05:03:17.444Z,4.00
2018-09-29T05:05:45.848Z,4.20
2018-09-29T05:08:14.277Z,4.80
2018-09-29T05:10:42.693Z,4.83
2018-09-29T05:13:11.169Z,4.33
2018-09-29T05:15:39.629Z,4.07
2018-09-29T05:18:08.086Z,4.50
2018-09-29T05:20:36.578Z,4.60
2018-09-29T05:23:05.072Z,4.23
2018-09-29T05:25:33.529Z,3.83
2018-09-29T05:28:02.005Z,3.90
2018-09-29T05:30:30.468Z,3.90
2018-09-29T05:32:58.935Z,4.20
2018-09-29T05:35:27.411Z,5.00
2018-09-29T05:37:55.867Z,4.90
2018-09-29T05:40:24.357Z,4.47
2018-09-29T05:42:52.834Z,3.73
2018-09-29T05:45:21.328Z,3.80
2018-09-29T05:47:49.810Z,3.33
2018-09-29T05:50:18.431Z,3.47
2018-09-29T05:52:46.916Z,3.93
2018-09-29T05:55:15.433Z,3.40
2018-09-29T05:57:43.910Z,3.87
2018-09-29T06:00:12.443Z,3.93
2018-09-29T06:02:40.838Z,2.83
2018-09-29T06:05:09.365Z,3.10
2018-09-29T06:07:37.807Z,2.90
2018-09-29T06:10:06.335Z,3.33
2018-09-29T06:12:34.765Z,3.13
2018-09-29T06:15:03.272Z,3.87
2018-09-29T06:17:31.766Z,4.13
2018-09-29T06:20:00.287Z,3.43
2018-09-29T06:22:28.745Z,4.00
2018-09-29T06:24:57.265Z,4.57
2018-09-29T06:27:25.709Z,4.67
2018-09-29T06:29:54.155Z,4.50
2018-09-29T06:32:22.616Z,4.27
2018-09-29T06:34:51.106Z,5.20
2018-09-29T06:37:19.563Z,4.70
2018-09-29T06:39:48.050Z,4.73
2018-09-29T06:42:16.469Z,5.27
2018-09-29T06:44:44.983Z,4.50
2018-09-29T06:47:13.492Z,5.00
2018-09-29T06:49:42.060Z,5.73
2018-09-29T06:52:10.533Z,5.07
2018-09-29T06:54:39.062Z,3.80
2018-09-29T06:57:07.480Z,3.30
2018-09-29T06:59:36.981Z,3.33
2018-09-29T07:02:05.445Z,3.80
2018-09-29T07:04:33.921Z,3.30
2018-09-29T07:07:02.381Z,3.30
2018-09-29T07:09:30.845Z,3.93
2018-09-29T07:11:59.310Z,3.97
2018-09-29T07:14:27.772Z,3.43
2018-09-29T07:16:56.248Z,4.03
2018-09-29T07:19:24.726Z,3.83
2018-09-29T07:21:53.245Z,4.57
2018-09-29T07:24:21.657Z,4.40
2018-09-29T07:26:50.065Z,4.37
2018-09-29T07:29:18.577Z,4.60
2018-09-29T07:31:47.024Z,4.20
2018-09-29T07:34:15.445Z,3.83
2018-09-29T07:36:44.243Z,4.00
2018-09-29T07:39:12.765Z,4.63
2018-09-29T07:41:41.319Z,4.47
2018-09-29T07:44:10.517Z,3.90
2018-09-29T07:46:39.137Z,3.90
2018-09-29T07:49:07.900Z,3.43
2018-09-29T07:51:38.384Z,4.03
2018-09-29T07:54:06.926Z,3.20
2018-09-29T07:56:35.381Z,2.93
2018-09-29T07:59:03.915Z,3.77
2018-09-29T08:01:32.410Z,3.43
2018-09-29T08:04:00.906Z,2.97
2018-09-29T08:06:29.515Z,3.10
2018-09-29T08:08:57.988Z,3.07
2018-09-29T08:11:26.516Z,2.60
2018-09-29T08:13:55.104Z,3.03
2018-09-29T08:16:23.628Z,2.83
2018-09-29T08:18:52.084Z,3.10
2018-09-29T08:21:20.721Z,2.90
2018-09-29T08:23:49.615Z,3.33
2018-09-29T08:26:18.347Z,3.20
2018-09-29T08:28:46.870Z,3.03
2018-09-29T08:31:15.378Z,3.17
2018-09-29T08:33:44.230Z,2.90
2018-09-29T08:36:12.712Z,3.00
2018-09-29T08:38:41.181Z,2.70
2018-09-29T08:41:09.729Z,3.07
2018-09-29T08:43:38.195Z,2.83
2018-09-29T08:46:07.093Z,2.77
2018-09-29T08:48:35.525Z,2.80
2018-09-29T08:51:03.972Z,2.33
2018-09-29T08:53:32.471Z,2.57
2018-09-29T08:56:00.944Z,2.53
2018-09-29T08:58:29.404Z,2.30
2018-09-29T09:00:57.922Z,2.83
2018-09-29T09:03:26.359Z,2.50
2018-09-29T09:05:54.845Z,2.40
2018-09-29T09:08:23.305Z,2.83
2018-09-29T09:10:51.965Z,2.60
2018-09-29T09:13:20.410Z,2.87
2018-09-29T09:15:48.909Z,2.70
2018-09-29T09:18:17.364Z,2.80
2018-09-29T09:20:46.934Z,3.00
2018-09-29T09:23:16.422Z,3.00
2018-09-29T09:25:44.902Z,2.10
2018-09-29T09:28:13.559Z,2.47
2018-09-29T09:30:42.119Z,2.37
2018-09-29T09:33:10.667Z,2.53
2018-09-29T09:35:39.168Z,2.37
2018-09-29T09:38:07.706Z,2.60
2018-09-29T09:40:36.216Z,2.73
2018-09-29T09:43:06.006Z,2.83
2018-09-29T09:45:34.445Z,2.33
2018-09-29T09:48:02.909Z,2.70
2018-09-29T09:50:31.425Z,2.70
2018-09-29T09:52:59.916Z,2.33
2018-09-29T09:55:28.469Z,2.57
2018-09-29T09:57:57.020Z,2.30
2018-09-29T10:00:30.793Z,2.97
2018-09-29T10:03:04.573Z,2.77
2018-09-29T10:05:33.165Z,2.50
2018-09-29T10:08:01.809Z,2.70
2018-09-29T10:10:30.323Z,2.37
2018-09-29T10:12:58.818Z,2.40
2018-09-29T10:15:27.931Z,2.00
2018-09-29T10:17:56.466Z,2.07
2018-09-29T10:20:24.970Z,2.17
2018-09-29T10:22:53.540Z,2.30
2018-09-29T10:25:23.791Z,2.23
2018-09-29T10:27:52.313Z,2.13
2018-09-29T10:30:20.855Z,1.67
2018-09-29T10:32:50.075Z,2.23
2018-09-29T10:35:19.404Z,1.90
2018-09-29T10:37:47.889Z,2.37
2018-09-29T10:40:16.424Z,2.77
2018-09-29T10:42:44.997Z,2.30
2018-09-29T10:45:13.500Z,2.23
2018-09-29T10:47:42.122Z,3.20
2018-09-29T10:50:10.761Z,2.50
2018-09-29T10:52:40.033Z,1.93
2018-09-29T10:55:08.585Z,2.50
2018-09-29T10:57:37.191Z,2.80
2018-09-29T11:00:06.010Z,2.27
2018-09-29T11:02:34.615Z,2.40
2018-09-29T11:05:03.756Z,2.17
2018-09-29T11:07:32.279Z,1.83
2018-09-29T11:10:00.839Z,2.30
2018-09-29T11:12:29.373Z,1.83
2018-09-29T11:14:57.991Z,2.30
2018-09-29T11:17:26.545Z,2.20
2018-09-29T11:19:55.054Z,2.07
2018-09-29T11:22:23.686Z,1.90
2018-09-29T11:24:52.219Z,2.00
2018-09-29T11:27:20.802Z,2.47
2018-09-29T11:29:49.272Z,2.10
2018-09-29T11:32:17.768Z,2.17
2018-09-29T11:34:46.349Z,2.10
2018-09-29T11:37:14.917Z,2.03
2018-09-29T11:39:43.428Z,2.20
2018-09-29T11:42:11.985Z,2.20
2018-09-29T11:44:40.534Z,2.00
2018-09-29T11:47:09.165Z,2.10
2018-09-29T11:49:37.746Z,2.37
2018-09-29T11:52:06.373Z,2.30
2018-09-29T11:54:34.923Z,2.10
2018-09-29T11:57:03.548Z,2.07
2018-09-29T11:59:32.069Z,2.50
2018-09-29T12:02:00.611Z,2.53
2018-09-29T12:04:29.182Z,2.43
2018-09-29T12:06:57.750Z,2.57
2018-09-29T12:09:26.193Z,2.13
2018-09-29T12:11:54.681Z,2.30
2018-09-29T12:14:24.033Z,2.40
2018-09-29T12:16:52.545Z,2.20
2018-09-29T12:19:21.146Z,2.10
2018-09-29T12:21:49.602Z,2.90
2018-09-29T12:24:18.101Z,2.20
2018-09-29T12:26:46.669Z,2.87
2018-09-29T12:29:16.378Z,2.40
2018-09-29T12:31:45.140Z,2.77
2018-09-29T12:34:13.641Z,3.00
2018-09-29T12:36:42.185Z,2.37
2018-09-29T12:39:11.773Z,2.10
2018-09-29T12:41:40.328Z,2.60
2018-09-29T12:44:08.844Z,2.23
2018-09-29T12:46:37.356Z,2.13
2018-09-29T12:49:05.975Z,1.67
2018-09-29T12:51:34.484Z,2.40
2018-09-29T12:54:03.049Z,2.23
2018-09-29T12:56:31.547Z,2.03
2018-09-29T12:59:00.912Z,2.07
2018-09-29T13:01:29.249Z,2.37
2018-09-29T13:03:57.744Z,2.43
2018-09-29T13:06:26.261Z,2.67
2018-09-29T13:08:55.381Z,2.60
2018-09-29T13:11:23.880Z,2.50
2018-09-29T13:13:52.665Z,1.93
2018-09-29T13:16:21.183Z,2.30
2018-09-29T13:18:49.705Z,2.77
2018-09-29T13:21:23.872Z,2.40
2018-09-29T13:23:52.363Z,1.93
2018-09-29T13:26:21.372Z,2.33
2018-09-29T13:28:50.302Z,2.37
2018-09-29T13:31:19.271Z,2.50
2018-09-29T13:33:48.516Z,2.37
2018-09-29T13:36:18.435Z,2.77
2018-09-29T13:38:48.846Z,2.20
2018-09-29T13:41:17.942Z,2.10
2018-09-29T13:43:46.506Z,2.27
2018-09-29T13:46:15.707Z,2.60
2018-09-29T13:48:44.220Z,2.40
2018-09-29T13:51:13.387Z,2.60
2018-09-29T13:53:41.942Z,2.40
2018-09-29T13:56:10.350Z,2.53
2018-09-29T13:58:39.157Z,2.10
2018-09-29T14:01:07.651Z,2.20
2018-09-29T14:03:36.379Z,2.53
2018-09-29T14:06:04.864Z,2.50
2018-09-29T14:08:33.397Z,2.43
2018-09-29T14:11:01.930Z,2.10
2018-09-29T14:13:31.480Z,2.23
2018-09-29T14:16:00.013Z,2.23
2018-09-29T14:18:28.481Z,2.30
2018-09-29T14:20:57.815Z,2.00
2018-09-29T14:23:26.349Z,2.40
2018-09-29T14:25:54.875Z,2.23
2018-09-29T14:28:23.463Z,2.47
2018-09-29T14:30:52.818Z,2.13
2018-09-29T14:33:21.370Z,2.43
2018-09-29T14:35:49.924Z,1.87
2018-09-29T14:38:18.479Z,2.03
2018-09-29T14:40:47.061Z,2.60
2018-09-29T14:43:16.008Z,2.17
2018-09-29T14:45:45.112Z,2.73
2018-09-29T14:48:13.649Z,2.20
2018-09-29T14:50:42.289Z,2.30
2018-09-29T14:53:11.689Z,2.30
2018-09-29T14:55:40.213Z,2.67
2018-09-29T14:58:08.867Z,3.13
2018-09-29T15:00:37.316Z,2.43
2018-09-29T15:03:05.858Z,2.20
2018-09-29T15:05:34.402Z,2.43
2018-09-29T15:08:02.893Z,2.20
2018-09-29T15:10:31.449Z,2.33
2018-09-29T15:13:00.043Z,2.60
2018-09-29T15:15:29.193Z,2.30
2018-09-29T15:17:57.781Z,2.60
2018-09-29T15:20:26.375Z,2.43
2018-09-29T15:22:54.905Z,2.50
2018-09-29T15:25:23.457Z,2.60
2018-09-29T15:27:51.983Z,2.50
2018-09-29T15:30:20.558Z,2.60
2018-09-29T15:32:49.081Z,2.60
2018-09-29T15:35:17.567Z,2.70
2018-09-29T15:37:46.042Z,2.53
2018-09-29T15:40:15.445Z,2.13
2018-09-29T15:42:44.115Z,2.40
2018-09-29T15:45:12.540Z,2.63
2018-09-29T15:47:41.069Z,2.10
2018-09-29T15:50:09.582Z,2.37
2018-09-29T15:52:38.085Z,3.10
2018-09-29T15:55:06.687Z,2.77
2018-09-29T15:57:35.210Z,2.43
2018-09-29T16:00:03.864Z,2.40
2018-09-29T16:02:32.332Z,2.47
2018-09-29T16:05:00.787Z,2.57
2018-09-29T16:07:29.279Z,2.80
2018-09-29T16:09:57.764Z,2.10
2018-09-29T16:12:26.309Z,2.33
2018-09-29T16:14:54.827Z,2.63
2018-09-29T16:17:23.304Z,2.93
2018-09-29T16:19:51.812Z,1.80
2018-09-29T16:22:20.392Z,1.90
2018-09-29T16:24:48.940Z,2.73
2018-09-29T16:27:17.422Z,2.43
2018-09-29T16:29:45.940Z,2.13
2018-09-29T16:32:14.501Z,2.40
2018-09-29T16:34:43.018Z,2.20
2018-09-29T16:37:11.493Z,2.70
2018-09-29T16:39:40.029Z,2.67
2018-09-29T16:42:08.550Z,2.30
2018-09-29T16:44:37.060Z,2.17
2018-09-29T16:47:05.626Z,2.37
2018-09-29T16:49:34.106Z,2.30
2018-09-29T16:52:03.452Z,2.30
2018-09-29T16:54:31.945Z,2.40
2018-09-29T16:57:00.401Z,2.87
2018-09-29T16:59:28.863Z,2.00
2018-09-29T17:01:57.444Z,2.53
2018-09-29T17:04:26.002Z,2.37
2018-09-29T17:06:54.490Z,2.63
2018-09-29T17:09:22.961Z,2.53
2018-09-29T17:11:51.484Z,2.40
2018-09-29T17:14:20.006Z,2.50
2018-09-29T17:16:48.528Z,2.63
2018-09-29T17:19:17.019Z,2.40
2018-09-29T17:21:45.598Z,2.43
2018-09-29T17:24:14.092Z,2.77
2018-09-29T17:26:42.660Z,2.60
2018-09-29T17:29:11.198Z,2.90
2018-09-29T17:31:39.738Z,2.90
2018-09-29T17:34:09.033Z,3.23
2018-09-29T17:36:37.558Z,2.90
2018-09-29T17:39:08.212Z,2.50
2018-09-29T17:41:36.680Z,3.73
2018-09-29T17:44:05.184Z,2.57
2018-09-29T17:46:33.853Z,2.83
2018-09-29T17:49:02.725Z,3.00
2018-09-29T17:51:31.242Z,3.70
2018-09-29T17:53:59.841Z,3.00
2018-09-29T17:56:28.336Z,3.47
2018-09-29T17:58:56.860Z,3.17
2018-09-29T18:01:25.336Z,3.43
2018-09-29T18:03:53.860Z,3.50
2018-09-29T18:06:22.435Z,3.20
2018-09-29T18:08:50.937Z,3.80
2018-09-29T18:11:19.471Z,3.90
2018-09-29T18:13:48.039Z,4.30
2018-09-29T18:16:16.483Z,3.97
2018-09-29T18:18:44.974Z,4.17
2018-09-29T18:21:13.488Z,3.77
2018-09-29T18:23:42.995Z,3.03
2018-09-29T18:26:11.671Z,3.67
2018-09-29T18:28:40.251Z,3.40
2018-09-29T18:31:08.878Z,3.77
2018-09-29T18:33:37.401Z,3.47
2018-09-29T18:36:05.982Z,3.90
2018-09-29T18:38:34.502Z,4.00
2018-09-29T18:41:02.987Z,4.23
2018-09-29T18:43:31.484Z,4.47
2018-09-29T18:45:59.949Z,4.73
2018-09-29T18:48:28.413Z,4.60
2018-09-29T18:50:57.028Z,4.70
2018-09-29T18:53:25.529Z,4.07
2018-09-29T18:55:54.070Z,5.60
2018-09-29T18:58:22.546Z,5.00
2018-09-29T19:00:51.623Z,4.53
2018-09-29T19:03:20.112Z,5.23
2018-09-29T19:05:48.600Z,5.10
2018-09-29T19:08:17.049Z,5.00
2018-09-29T19:10:45.575Z,5.23
2018-09-29T19:13:14.041Z,5.90
2018-09-29T19:15:42.576Z,5.70
2018-09-29T19:18:11.215Z,5.47
2018-09-29T19:20:39.726Z,5.37
2018-09-29T19:23:09.420Z,6.33
2018-09-29T19:25:38.026Z,6.00
2018-09-29T19:28:06.541Z,6.27
2018-09-29T19:30:35.045Z,6.97
2018-09-29T19:33:04.225Z,6.63
2018-09-29T19:35:32.733Z,6.83
2018-09-29T19:38:01.182Z,6.53
2018-09-29T19:40:29.667Z,6.80
2018-09-29T19:42:58.162Z,5.37
2018-09-29T19:45:27.600Z,5.90
2018-09-29T19:47:56.125Z,6.40
2018-09-29T19:50:24.632Z,6.20
2018-09-29T19:52:53.215Z,5.80
2018-09-29T19:55:21.791Z,5.83
2018-09-29T19:57:50.304Z,5.87
2018-09-29T20:00:18.865Z,5.87
2018-09-29T20:02:47.351Z,5.93
2018-09-29T20:05:16.569Z,5.67
2018-09-29T20:07:45.074Z,6.00
2018-09-29T20:10:13.697Z,9.37
2018-09-29T20:12:42.174Z,6.80
2018-09-29T20:15:10.677Z,6.60
2018-09-29T20:17:39.197Z,6.07
2018-09-29T20:20:07.772Z,5.93
2018-09-29T20:22:36.328Z,5.67
2018-09-29T20:25:04.886Z,5.57
2018-09-29T20:27:33.413Z,5.80
2018-09-29T20:30:01.958Z,6.37
2018-09-29T20:32:30.461Z,5.70
2018-09-29T20:34:58.983Z,6.27
2018-09-29T20:37:27.493Z,6.47
2018-09-29T20:39:55.961Z,7.07
2018-09-29T20:42:24.762Z,8.17
2018-09-29T20:44:53.249Z,7.60
2018-09-29T20:47:21.805Z,6.77
2018-09-29T20:49:51.214Z,7.47
2018-09-29T20:52:20.100Z,9.33
2018-09-29T20:54:49.380Z,9.77
2018-09-29T20:57:18.062Z,9.17
2018-09-29T20:59:46.867Z,8.60
2018-09-29T21:02:15.657Z,8.40
2018-09-29T21:04:44.660Z,8.93
2018-09-29T21:07:13.485Z,8.00
2018-09-29T21:09:42.043Z,8.50
2018-09-29T21:12:10.654Z,8.00
2018-09-29T21:14:39.628Z,8.13
2018-09-29T21:17:08.231Z,7.53
2018-09-29T21:19:36.711Z,8.37
2018-09-29T21:22:07.013Z,7.13
2018-09-29T21:24:36.731Z,7.20
2018-09-29T21:27:05.327Z,6.80
2018-09-29T21:29:34.099Z,6.27
2018-09-29T21:32:02.954Z,7.03
2018-09-29T21:34:31.746Z,6.40
2018-09-29T21:37:00.568Z,6.27
2018-09-29T21:39:29.336Z,7.03
2018-09-29T21:41:58.122Z,7.50
2018-09-29T21:44:26.874Z,6.67
2018-09-29T21:46:55.566Z,6.63
2018-09-29T21:49:24.069Z,10.17
2018-09-29T21:51:52.594Z,7.67
2018-09-29T21:54:21.486Z,8.63
2018-09-29T21:56:49.964Z,7.83
2018-09-29T21:59:18.425Z,8.90
2018-09-29T22:01:46.904Z,9.17
2018-09-29T22:04:15.441Z,8.30
2018-09-29T22:06:44.052Z,8.50
2018-09-29T22:09:16.734Z,8.07
2018-09-29T22:11:45.257Z,7.10
2018-09-29T22:14:13.799Z,8.20
2018-09-29T22:16:42.293Z,7.67
2018-09-29T22:19:10.799Z,8.17
2018-09-29T22:21:39.312Z,8.13
2018-09-29T22:24:08.136Z,9.57
2018-09-29T22:26:36.640Z,12.60
2018-09-29T22:29:05.096Z,9.43
2018-09-29T22:31:33.561Z,8.77
2018-09-29T22:34:02.052Z,7.90
2018-09-29T22:36:30.513Z,7.00
2018-09-29T22:38:59.047Z,7.33
2018-09-29T22:41:27.547Z,7.00
2018-09-29T22:43:56.001Z,7.37
2018-09-29T22:46:24.592Z,7.27
2018-09-29T22:48:53.044Z,7.60
2018-09-29T22:51:21.524Z,6.70
2018-09-29T22:53:50.011Z,8.10
2018-09-29T22:56:18.443Z,7.13
2018-09-29T22:58:46.930Z,6.87
2018-09-29T23:01:15.412Z,5.93
2018-09-29T23:03:43.859Z,6.40
2018-09-29T23:06:12.390Z,6.07
2018-09-29T23:08:40.904Z,6.57
2018-09-29T23:11:09.413Z,6.60
2018-09-29T23:13:37.922Z,5.87
2018-09-29T23:16:06.412Z,6.57
2018-09-29T23:18:34.921Z,5.80
2018-09-29T23:21:03.411Z,5.70
2018-09-29T23:23:31.867Z,5.47
2018-09-29T23:26:00.338Z,5.47
2018-09-29T23:28:28.816Z,5.10
2018-09-29T23:30:57.276Z,5.50
2018-09-29T23:33:25.700Z,5.47
2018-09-29T23:35:54.420Z,5.40
2018-09-29T23:38:22.900Z,4.90
2018-09-29T23:40:51.366Z,5.03
2018-09-29T23:43:19.862Z,5.40
2018-09-29T23:45:48.354Z,5.00
2018-09-29T23:48:16.830Z,4.97
2018-09-29T23:50:45.320Z,5.20
2018-09-29T23:53:13.763Z,5.23
2018-09-29T23:55:42.255Z,6.63
2018-09-29T23:58:10.984Z,5.97
